Time;durP1;ratioP1;P1;durP2;ratioP2;P2;SDS_P1;SDS_P2;PMS_P1;PMS_P2;Temp;Humidity;BMP_temperature;BMP_pressure;BME280_temperature;BME280_humidity;BME280_pressure;Samples;Min_cycle;Max_cycle;Signal;HPM_P1;HPM_P2
2022/05/24 00:01:25;;;;;;;2.05;1.00;;;;;;;17.47;49.76;99614.53;4470067;32;20088;-64
2022/05/24 00:03:52;;;;;;;7.22;1.67;;;;;;;17.44;49.67;99606.72;4470061;32;20722;-64
2022/05/24 00:06:19;;;;;;;4.57;1.90;;;;;;;17.51;49.02;99612.56;4470068;32;20228;-64
2022/05/24 00:08:47;;;;;;;3.62;1.40;;;;;;;17.55;48.76;99606.16;4469918;32;20444;-64
2022/05/24 00:11:15;;;;;;;4.18;1.60;;;;;;;17.61;48.14;99601.34;4469862;32;20203;-64
2022/05/24 00:13:42;;;;;;;3.10;2.45;;;;;;;17.62;48.34;99604.87;4469943;32;20084;-64
2022/05/24 00:16:09;;;;;;;9.63;2.90;;;;;;;17.57;48.20;99602.47;4469929;32;20519;-64
2022/05/24 00:18:37;;;;;;;3.28;2.60;;;;;;;17.56;48.45;99592.75;4469878;32;20092;-64
2022/05/24 00:21:05;;;;;;;6.30;2.62;;;;;;;17.60;48.47;99588.97;4470004;32;20180;-64
2022/05/24 00:23:33;;;;;;;6.35;3.03;;;;;;;17.58;48.12;99593.53;4469941;32;20433;-64
2022/05/24 00:26:07;;;;;;;6.30;2.50;;;;;;;17.53;48.46;99587.59;4469802;32;20142;-64
2022/05/24 00:28:35;;;;;;;2.70;2.50;;;;;;;17.54;48.20;99588.44;4469770;32;20152;-64
2022/05/24 00:31:03;;;;;;;2.95;2.15;;;;;;;17.52;48.46;99580.53;4469946;32;20121;-64
2022/05/24 00:33:34;;;;;;;4.00;1.58;;;;;;;17.42;48.55;99580.16;4469793;32;20467;-64
2022/05/24 00:36:01;;;;;;;4.62;1.48;;;;;;;17.42;48.59;99581.94;4469729;32;20088;-64
2022/05/24 00:38:36;;;;;;;3.05;1.50;;;;;;;17.51;48.07;99578.81;4469666;32;20164;-64
2022/05/24 00:41:17;;;;;;;3.70;1.98;;;;;;;17.41;48.18;99585.56;4469698;32;20119;-64
2022/05/24 00:43:52;;;;;;;3.25;1.37;;;;;;;17.35;48.78;99578.78;4469959;32;20095;-65
2022/05/24 00:46:26;;;;;;;1.27;1.20;;;;;;;17.33;48.71;99579.78;4469745;32;20131;-64
2022/05/24 00:48:54;;;;;;;1.75;1.10;;;;;;;17.39;48.52;99575.00;4469685;32;20088;-64
2022/05/24 00:51:48;;;;;;;1.73;1.23;;;;;;;17.28;48.53;99574.72;4469819;32;20104;-64
2022/05/24 00:54:15;;;;;;;4.70;1.33;;;;;;;17.22;48.88;99574.16;4469332;32;20099;-64
2022/05/24 00:57:10;;;;;;;2.53;1.17;;;;;;;17.18;49.06;99577.00;4469605;32;20415;-64
2022/05/24 00:59:46;;;;;;;2.55;1.50;;;;;;;17.04;49.55;99586.62;4469376;32;20513;-64
2022/05/24 01:02:13;;;;;;;3.12;1.62;;;;;;;16.93;49.94;99588.03;4469503;32;20087;-64
2022/05/24 01:04:41;;;;;;;3.67;1.30;;;;;;;16.97;50.12;99591.41;4469461;32;20630;-64
2022/05/24 01:07:09;;;;;;;1.55;1.45;;;;;;;16.94;50.30;99589.75;4469377;32;20165;-64
2022/05/24 01:10:04;;;;;;;5.28;1.20;;;;;;;16.91;50.41;99589.91;4469182;32;20127;-64
2022/05/24 01:12:45;;;;;;;1.50;1.40;;;;;;;16.94;50.39;99589.75;4469382;32;20575;-64
2022/05/24 01:15:14;;;;;;;1.10;1.10;;;;;;;16.95;50.51;99587.94;4469584;32;20369;-64
2022/05/24 01:17:43;;;;;;;1.40;1.27;;;;;;;16.97;50.21;99591.41;4469427;32;20172;-64
2022/05/24 01:20:11;;;;;;;3.12;1.37;;;;;;;16.88;50.41;99605.16;4469206;32;20119;-64
2022/05/24 01:23:04;;;;;;;1.65;1.37;;;;;;;16.95;50.31;99603.91;4469166;32;20127;-64
2022/05/24 01:25:50;;;;;;;7.22;1.20;;;;;;;16.94;50.23;99607.53;4469204;32;20424;-64
2022/05/24 01:28:26;;;;;;;1.40;1.30;;;;;;;16.98;49.77;99617.06;4454599;32;20088;-64
2022/05/24 01:30:55;;;;;;;1.48;1.35;;;;;;;16.96;50.23;99626.91;4469054;32;20180;-64
2022/05/24 01:36:10;;;;;;;1.92;1.40;;;;;;;17.01;49.70;99632.88;4469098;32;20099;-64
2022/05/24 01:38:43;;;;;;;2.35;1.27;;;;;;;17.00;49.83;99660.44;4468831;32;20149;-64
2022/05/24 01:41:16;;;;;;;1.80;1.48;;;;;;;17.06;50.37;99680.56;4468847;32;20171;-64
2022/05/24 01:43:47;;;;;;;2.87;1.30;;;;;;;17.02;50.48;99705.59;4468989;32;20470;-64
2022/05/24 01:46:18;;;;;;;1.80;1.40;;;;;;;17.04;49.56;99699.28;4468845;32;20560;-64
2022/05/24 01:48:56;;;;;;;3.42;1.75;;;;;;;17.03;49.76;99691.34;4468824;32;20102;-64
2022/05/24 01:51:29;;;;;;;1.23;1.20;;;;;;;17.07;49.53;99683.16;4468859;32;20131;-64
2022/05/24 01:54:00;;;;;;;3.62;1.80;;;;;;;17.05;50.87;99662.88;4469042;32;20126;-64
2022/05/24 01:56:47;;;;;;;3.47;1.50;;;;;;;17.01;54.81;99603.59;4468740;32;20408;-64
2022/05/24 01:59:17;;;;;;;2.55;1.60;;;;;;;16.79;57.18;99590.53;4468801;32;20432;-64
2022/05/24 02:01:52;;;;;;;1.55;1.40;;;;;;;16.68;57.48;99577.72;4468778;32;20522;-64
2022/05/24 02:04:21;;;;;;;4.43;1.52;;;;;;;16.43;58.34;99586.06;4468745;32;20138;-64
2022/05/24 02:07:01;;;;;;;2.22;1.87;;;;;;;16.31;58.21;99602.59;4453727;32;20524;-64
2022/05/24 02:09:29;;;;;;;1.70;1.60;;;;;;;16.29;58.53;99603.59;4468553;32;20508;-64
2022/05/24 02:12:01;;;;;;;2.67;1.65;;;;;;;16.29;59.77;99619.53;4468486;32;20452;-64
2022/05/24 02:14:33;;;;;;;2.33;1.77;;;;;;;16.07;61.93;99636.50;4468430;32;20157;-64
2022/05/24 02:17:06;;;;;;;2.33;1.83;;;;;;;16.08;62.29;99648.88;4468411;32;20159;-64
2022/05/24 02:19:37;;;;;;;5.70;1.80;;;;;;;16.28;58.85;99663.00;4468287;32;20076;-64
2022/05/24 02:22:11;;;;;;;3.17;1.67;;;;;;;16.21;62.05;99673.06;4470312;32;20077;-64
2022/05/24 02:24:38;;;;;;;4.30;1.62;;;;;;;15.99;62.70;99675.84;4470924;32;20165;-64
2022/05/24 02:27:05;;;;;;;3.20;1.70;;;;;;;15.96;63.04;99682.16;4470820;32;20155;-65
2022/05/24 02:29:32;;;;;;;2.87;1.80;;;;;;;16.09;58.57;99677.16;4470502;32;20092;-64
2022/05/24 02:31:59;;;;;;;2.15;1.50;;;;;;;16.15;59.02;99690.19;4470734;32;20471;-65
2022/05/24 02:34:27;;;;;;;3.33;1.65;;;;;;;15.91;61.47;99704.56;4470747;32;20168;-64
2022/05/24 02:36:54;;;;;;;3.10;1.83;;;;;;;15.98;62.26;99701.56;4470748;32;20473;-64
2022/05/24 02:39:22;;;;;;;3.45;1.90;;;;;;;15.97;63.25;99696.31;4470711;32;20123;-65
2022/05/24 02:41:49;;;;;;;9.75;3.20;;;;;;;15.78;68.62;99696.28;4470746;32;20482;-64
2022/05/24 02:44:16;;;;;;;8.32;3.60;;;;;;;15.59;67.58;99701.50;4470490;32;20145;-65
2022/05/24 02:46:47;;;;;;;9.73;3.10;;;;;;;15.69;70.50;99694.03;4470689;32;20115;-65
2022/05/24 02:49:15;;;;;;;3.65;2.30;;;;;;;15.60;72.02;99689.94;4470705;32;20172;-64
2022/05/24 02:51:44;;;;;;;2.78;2.33;;;;;;;15.50;73.33;99704.53;4470646;32;20588;-64
2022/05/24 02:54:12;;;;;;;8.82;2.40;;;;;;;15.30;75.11;99700.97;4470586;32;20096;-64
2022/05/24 02:56:40;;;;;;;5.28;2.97;;;;;;;15.19;76.11;99699.66;4470898;32;20110;-64
2022/05/24 02:59:07;;;;;;;2.47;2.30;;;;;;;15.01;81.62;99711.91;4470491;32;20470;-64
2022/05/24 03:01:34;;;;;;;7.60;2.92;;;;;;;15.10;79.95;99703.56;4470444;32;20093;-64
2022/05/24 03:04:02;;;;;;;16.85;3.60;;;;;;;15.03;88.10;99708.28;4470661;32;20187;-64
2022/05/24 03:09:33;;;;;;;8.70;3.17;;;;;;;14.66;86.14;99700.91;4470633;32;20110;-64
2022/05/24 03:09:35;;;;;;;11.57;3.60;;;;;;;14.65;83.94;99693.03;4470585;32;20085;-64
2022/05/24 03:14:52;;;;;;;9.38;3.35;;;;;;;14.38;96.61;99677.28;4470743;32;20535;-64
2022/05/24 03:17:19;;;;;;;5.75;3.47;;;;;;;14.43;95.30;99667.34;4470389;32;20428;-64
2022/05/24 03:19:47;;;;;;;7.53;3.30;;;;;;;14.26;95.09;99660.03;4470638;32;20108;-64
2022/05/24 03:22:15;;;;;;;5.20;3.05;;;;;;;14.24;94.25;99659.25;4470338;32;20168;-64
2022/05/24 03:24:43;;;;;;;3.70;3.17;;;;;;;14.17;94.83;99672.75;4470434;32;20092;-64
2022/05/24 03:27:14;;;;;;;5.93;3.08;;;;;;;14.08;91.08;99676.62;4470433;32;20088;-64
2022/05/24 03:29:42;;;;;;;8.50;3.40;;;;;;;14.14;91.81;99691.44;4470320;32;20152;-64
2022/05/24 03:32:12;;;;;;;7.70;3.03;;;;;;;14.12;95.58;99707.38;4469363;32;20173;-64
2022/05/24 03:34:40;;;;;;;9.90;3.90;;;;;;;14.09;94.44;99721.59;4470459;32;20107;-64
2022/05/24 03:37:09;;;;;;;7.43;3.60;;;;;;;14.00;97.45;99747.59;4470413;32;20511;-64
2022/05/24 03:39:36;;;;;;;12.73;3.50;;;;;;;13.89;98.47;99761.22;4470384;32;20080;-64
2022/05/24 03:42:04;;;;;;;11.05;3.50;;;;;;;13.80;93.67;99772.13;4470236;32;20119;-64
2022/05/24 03:44:31;;;;;;;4.25;3.75;;;;;;;14.02;92.98;99773.06;4470481;32;20100;-64
2022/05/24 03:46:58;;;;;;;4.87;3.40;;;;;;;14.07;95.51;99763.19;4470644;32;20100;-64
2022/05/24 03:49:26;;;;;;;4.45;4.05;;;;;;;14.19;95.68;99748.63;4470506;32;20092;-64
2022/05/24 03:51:53;;;;;;;8.52;5.22;;;;;;;14.17;98.89;99733.69;4462564;32;20136;-64
2022/05/24 03:54:20;;;;;;;9.27;4.80;;;;;;;14.28;95.66;99729.75;4454023;32;20092;-64
2022/05/24 03:59:33;;;;;;;7.93;4.55;;;;;;;14.24;94.75;99724.59;4454281;32;20085;-64
2022/05/24 04:02:00;;;;;;;7.85;4.12;;;;;;;14.26;99.23;99722.78;4454833;32;20458;-64
2022/05/24 04:04:29;;;;;;;9.52;4.62;;;;;;;13.92;100.00;99728.44;4454441;32;20242;-64
2022/05/24 04:06:56;;;;;;;6.05;3.87;;;;;;;14.01;100.00;99728.13;4454268;32;20084;-64
2022/05/24 04:09:23;;;;;;;7.65;4.30;;;;;;;14.02;100.00;99740.44;4454155;32;20382;-64
2022/05/24 04:11:54;;;;;;;8.60;4.20;;;;;;;14.08;98.13;99756.97;4454402;32;20096;-64
2022/05/24 04:14:22;;;;;;;8.55;4.18;;;;;;;14.16;97.99;99753.19;4454354;32;20436;-64
2022/05/24 04:16:50;;;;;;;6.70;4.18;;;;;;;14.20;95.80;99750.34;4454175;32;20190;-64
2022/05/24 04:19:17;;;;;;;5.22;3.55;;;;;;;14.15;99.21;99754.09;4454248;32;20092;-64
2022/05/24 04:21:44;;;;;;;5.45;3.67;;;;;;;14.18;96.48;99752.22;4454066;32;20093;-64
2022/05/24 04:24:13;;;;;;;10.13;3.90;;;;;;;14.21;95.77;99756.53;4454339;32;20118;-64
2022/05/24 04:26:40;;;;;;;3.90;3.42;;;;;;;14.31;95.13;99756.16;4454403;32;20688;-64
2022/05/24 04:29:07;;;;;;;5.57;3.60;;;;;;;14.29;94.32;99760.62;4453837;32;20085;-64
2022/05/24 04:31:35;;;;;;;4.37;3.37;;;;;;;14.24;94.19;99753.75;4454060;32;20096;-64
2022/05/24 04:34:03;;;;;;;5.53;4.00;;;;;;;14.15;97.37;99754.09;4454249;32;20142;-64
2022/05/24 04:36:31;;;;;;;7.30;3.53;;;;;;;13.95;99.47;99760.13;4454261;32;20089;-64
2022/05/24 04:38:59;;;;;;;9.55;5.07;;;;;;;13.91;99.76;99759.34;4454074;32;20372;-64
2022/05/24 04:44:12;;;;;;;8.50;4.78;;;;;;;13.97;100.00;99768.88;4453588;32;20191;-64
2022/05/24 04:49:50;;;;;;;10.00;4.18;;;;;;;13.78;100.00;99773.94;4404907;32;20197;-63
2022/05/24 04:52:18;;;;;;;8.15;4.22;;;;;;;13.81;100.00;99769.41;4445480;32;20097;-63
2022/05/24 04:54:45;;;;;;;5.35;3.53;;;;;;;13.81;100.00;99769.41;4454393;32;20167;-63
2022/05/24 04:57:14;;;;;;;8.38;4.40;;;;;;;13.80;100.00;99770.31;4454418;32;20090;-63
2022/05/24 04:59:41;;;;;;;9.32;5.40;;;;;;;13.68;100.00;99761.97;4454435;32;20119;-63
2022/05/24 05:02:17;;;;;;;5.45;4.40;;;;;;;13.70;100.00;99763.63;4454515;32;20777;-63
2022/05/24 05:04:44;;;;;;;7.87;4.37;;;;;;;13.75;100.00;99758.19;4454817;32;20109;-63
2022/05/24 05:07:12;;;;;;;7.85;4.55;;;;;;;13.74;100.00;99757.28;4454777;32;20085;-63
2022/05/24 05:09:40;;;;;;;4.40;3.92;;;;;;;13.79;100.00;99759.81;4453965;32;20100;-63
2022/05/24 05:12:09;;;;;;;7.60;4.25;;;;;;;13.87;100.00;99773.63;4454552;32;20096;-63
2022/05/24 05:14:39;;;;;;;9.40;4.07;;;;;;;13.74;100.00;99778.47;4454786;32;20752;-63
2022/05/24 05:17:10;;;;;;;5.68;4.57;;;;;;;13.71;100.00;99775.06;4454672;32;20084;-63
2022/05/24 05:19:38;;;;;;;5.62;4.12;;;;;;;13.71;100.00;99769.78;4454462;32;20084;-63
2022/05/24 05:22:05;;;;;;;5.72;4.47;;;;;;;13.82;100.00;99767.66;4454556;32;20100;-63
2022/05/24 05:24:33;;;;;;;6.00;4.72;;;;;;;13.79;100.00;99773.03;4454181;32;20089;-63
2022/05/24 05:27:01;;;;;;;6.37;4.25;;;;;;;13.77;100.00;99777.50;4453232;32;20080;-63
2022/05/24 05:32:21;;;;;;;11.90;10.23;;;;;;;13.88;100.00;99788.59;4455493;32;20144;-63
2022/05/24 05:34:49;;;;;;;14.93;7.30;;;;;;;13.86;100.00;99782.50;4464014;32;20420;-63
2022/05/24 05:37:17;;;;;;;5.70;5.10;;;;;;;13.92;100.00;99784.06;4460873;32;20141;-63
2022/05/24 05:39:46;;;;;;;5.45;4.78;;;;;;;14.08;98.02;99782.59;4458388;32;20114;-63
2022/05/24 05:42:14;;;;;;;7.60;4.32;;;;;;;14.10;100.00;99778.97;4458510;32;20096;-63
2022/05/24 05:44:41;;;;;;;5.10;4.60;;;;;;;14.03;100.00;99773.97;4460113;32;20164;-63
2022/05/24 05:47:09;;;;;;;6.45;5.80;;;;;;;13.94;100.00;99764.53;4469847;32;20111;-63
2022/05/24 05:49:36;;;;;;;9.85;8.85;;;;;;;13.93;100.00;99777.84;4469492;32;20100;-63
2022/05/24 05:52:04;;;;;;;13.05;11.65;;;;;;;14.03;100.00;99774.81;4468537;32;20475;-62
2022/05/24 05:54:31;;;;;;;10.32;9.30;;;;;;;13.97;100.00;99782.97;4469436;32;20570;-63
2022/05/24 05:56:58;;;;;;;10.35;7.53;;;;;;;13.98;100.00;99784.72;4471055;32;20667;-63
2022/05/24 05:59:26;;;;;;;6.90;5.72;;;;;;;13.95;100.00;99784.81;4466795;32;20990;-63
2022/05/24 06:01:58;;;;;;;9.68;5.50;;;;;;;13.90;100.00;99785.91;4460718;32;20112;-63
2022/05/24 06:04:26;;;;;;;7.07;5.55;;;;;;;14.06;100.00;99790.63;4456029;32;20119;-63
2022/05/24 06:06:53;;;;;;;13.50;7.93;;;;;;;14.17;100.00;99789.34;4456354;32;20085;-65
2022/05/24 06:09:21;;;;;;;10.18;6.78;;;;;;;13.97;100.00;99785.63;4456173;32;20112;-63
2022/05/24 06:11:50;;;;;;;7.05;5.03;;;;;;;13.91;100.00;99779.69;4455940;32;20768;-63
2022/05/24 06:14:17;;;;;;;5.85;4.78;;;;;;;13.87;100.00;99776.28;4456146;32;20104;-63
2022/05/24 06:17:04;;;;;;;7.12;4.87;;;;;;;14.03;100.00;99773.97;4456131;32;20427;-63
2022/05/24 06:19:31;;;;;;;6.53;4.60;;;;;;;13.97;100.00;99779.47;4455840;32;20136;-63
2022/05/24 06:21:58;;;;;;;5.00;4.50;;;;;;;13.98;100.00;99767.94;4431702;32;20162;-64
2022/05/24 06:24:25;;;;;;;8.98;4.60;;;;;;;13.93;100.00;99769.91;4460762;32;20492;-63
2022/05/24 06:26:53;;;;;;;4.97;4.45;;;;;;;13.89;100.00;99766.50;4463928;32;20754;-63
2022/05/24 06:29:20;;;;;;;5.18;4.07;;;;;;;13.77;100.00;99770.44;4463413;32;20168;-63
2022/05/24 06:31:49;;;;;;;6.57;4.87;;;;;;;13.88;100.00;99770.06;4464079;32;20108;-63
2022/05/24 06:34:16;;;;;;;7.45;5.32;;;;;;;14.03;100.00;99776.62;4462605;32;20135;-63
2022/05/24 06:36:43;;;;;;;8.23;6.00;;;;;;;14.09;100.00;99771.94;4460996;32;20088;-63
2022/05/24 06:39:10;;;;;;;10.30;6.53;;;;;;;14.21;100.00;99777.72;4461269;32;20178;-63
2022/05/24 06:41:37;;;;;;;11.07;5.87;;;;;;;14.38;98.97;99782.38;4455675;32;20093;-63
2022/05/24 06:44:05;;;;;;;8.38;5.68;;;;;;;14.38;98.62;99780.63;4455921;32;20783;-64
2022/05/24 06:46:33;;;;;;;6.22;5.10;;;;;;;14.45;98.55;99784.78;4455929;32;20151;-63
2022/05/24 06:49:00;;;;;;;5.70;5.20;;;;;;;14.63;95.92;99793.88;4455812;32;20245;-63
2022/05/24 06:51:27;;;;;;;6.07;5.53;;;;;;;14.73;95.34;99797.00;4460765;32;20100;-63
2022/05/24 06:53:55;;;;;;;9.50;4.80;;;;;;;14.67;99.24;99800.78;4459434;32;20112;-63
2022/05/24 06:56:22;;;;;;;5.85;4.93;;;;;;;14.70;98.51;99802.41;4454218;32;20153;-63
2022/05/24 06:58:49;;;;;;;7.45;5.00;;;;;;;14.67;97.54;99805.22;4455770;32;20093;-63
2022/05/24 07:04:03;;;;;;;9.75;4.75;;;;;;;14.92;97.61;99805.13;4455724;32;20100;-63
2022/05/24 07:06:30;;;;;;;5.30;4.62;;;;;;;15.03;96.29;99802.94;4464162;32;20187;-63
2022/05/24 07:08:57;;;;;;;8.85;4.82;;;;;;;15.06;96.26;99806.31;4471422;32;20115;-63
2022/05/24 07:11:24;;;;;;;9.40;4.32;;;;;;;15.18;94.91;99799.66;4471184;32;20130;-63
2022/05/24 07:13:54;;;;;;;7.68;5.45;;;;;;;15.39;93.35;99803.22;4471456;32;20132;-63
2022/05/24 07:16:24;;;;;;;7.72;5.80;;;;;;;15.42;94.72;99804.91;4458977;32;20096;-64
2022/05/24 07:18:52;;;;;;;7.95;4.82;;;;;;;15.42;96.17;99800.44;4455076;32;20101;-64
2022/05/24 07:21:19;;;;;;;6.45;4.62;;;;;;;15.88;92.28;99805.66;4455536;32;20100;-63
2022/05/24 07:23:46;;;;;;;8.75;4.57;;;;;;;16.04;90.51;99811.16;4463839;32;20096;-63
2022/05/24 07:26:17;;;;;;;8.43;5.62;;;;;;;16.31;88.68;99809.94;4467603;32;20370;-63
2022/05/24 07:29:04;;;;;;;8.90;4.65;;;;;;;16.66;86.67;99810.16;4458456;32;20080;-64
2022/05/24 07:31:32;;;;;;;6.65;3.90;;;;;;;16.89;85.51;99804.66;4470773;32;20116;-63
2022/05/24 07:33:59;;;;;;;5.57;4.50;;;;;;;17.08;83.86;99806.44;4470592;32;20100;-64
2022/05/24 07:36:27;;;;;;;7.87;4.37;;;;;;;17.13;82.88;99815.94;4471095;32;20088;-64
2022/05/24 07:38:55;;;;;;;4.85;4.18;;;;;;;17.07;83.77;99800.28;4470635;32;20153;-64
2022/05/24 07:46:56;;;;;;;4.18;3.85;;;;;;;17.38;80.43;99802.28;4455502;32;20087;-63
2022/05/24 07:49:23;;;;;;;4.45;4.05;;;;;;;17.57;79.26;99796.06;4455231;32;20485;-64
2022/05/24 07:51:50;;;;;;;6.32;3.30;;;;;;;17.60;81.05;99803.91;4459222;32;20093;-64
2022/05/24 07:54:18;;;;;;;6.03;3.55;;;;;;;17.84;77.13;99794.69;4455466;32;20108;-65
2022/05/24 07:56:45;;;;;;;3.90;3.17;;;;;;;17.62;76.73;99804.69;4455219;32;20461;-64
2022/05/24 07:59:12;;;;;;;5.22;3.85;;;;;;;17.49;78.13;99800.91;4455450;32;20084;-64
2022/05/24 08:01:40;;;;;;;5.43;3.40;;;;;;;17.14;79.96;99798.19;4460256;32;20128;-64
2022/05/24 08:04:09;;;;;;;5.65;3.30;;;;;;;17.03;78.62;99806.69;4462953;32;20096;-64
2022/05/24 08:06:37;;;;;;;4.18;2.90;;;;;;;17.06;79.22;99803.00;4457392;32;20087;-64
2022/05/24 08:09:04;;;;;;;3.92;3.30;;;;;;;17.22;80.34;99808.47;4457328;32;20093;-64
2022/05/24 08:11:32;;;;;;;5.40;3.90;;;;;;;17.37;82.24;99807.69;4460233;32;20979;-64
2022/05/24 08:14:02;;;;;;;5.47;3.90;;;;;;;17.47;80.74;99814.31;4467645;32;20538;-64
2022/05/24 08:16:30;;;;;;;7.50;4.05;;;;;;;17.29;82.70;99816.06;4460161;32;20088;-64
2022/05/24 08:18:58;;;;;;;6.75;3.78;;;;;;;17.47;80.25;99816.97;4456379;32;20151;-65
2022/05/24 08:21:26;;;;;;;10.73;4.12;;;;;;;17.66;80.44;99817.75;4459352;32;20089;-64
2022/05/24 08:23:54;;;;;;;6.65;3.97;;;;;;;17.98;78.33;99817.09;4461529;32;20506;-64
2022/05/24 08:26:22;;;;;;;5.60;3.92;;;;;;;18.50;77.44;99807.22;4460965;32;20144;-64
2022/05/24 08:28:50;;;;;;;6.47;3.83;;;;;;;18.74;74.52;99809.56;4461060;32;20193;-64
2022/05/24 08:31:18;;;;;;;7.30;4.05;;;;;;;19.26;76.13;99809.31;4455085;32;20443;-64
2022/05/24 08:33:47;;;;;;;9.07;3.75;;;;;;;19.41;72.73;99811.09;4457715;32;20154;-64
2022/05/24 08:36:14;;;;;;;7.87;3.97;;;;;;;19.58;72.69;99807.47;4459082;32;20096;-64
2022/05/24 08:38:42;;;;;;;8.88;3.58;;;;;;;19.65;71.58;99810.69;4453632;32;20487;-64
2022/05/24 08:41:26;;;;;;;4.62;3.22;;;;;;;19.59;71.31;99810.03;4453682;32;20644;-64
2022/05/24 08:43:53;;;;;;;7.10;3.65;;;;;;;19.94;68.87;99803.59;4458472;32;20104;-64
2022/05/24 08:49:24;;;;;;;7.68;2.67;;;;;;;19.91;69.39;99801.97;4470707;32;20144;-64
2022/05/24 08:51:56;;;;;;;4.97;3.03;;;;;;;20.10;68.49;99804.38;4468296;32;20085;-64
2022/05/24 08:54:45;;;;;;;3.20;2.80;;;;;;;20.09;68.89;99807.16;4470186;32;20092;-64
2022/05/24 08:57:29;;;;;;;6.82;2.80;;;;;;;20.71;65.85;99802.47;4470405;32;20101;-64
2022/05/24 09:00:02;;;;;;;6.03;3.12;;;;;;;20.90;65.58;99805.69;4470539;32;20096;-63
2022/05/24 09:02:29;;;;;;;5.47;2.95;;;;;;;20.81;65.99;99800.03;4470255;32;20119;-64
2022/05/24 09:04:57;;;;;;;6.72;2.60;;;;;;;20.65;65.74;99806.38;4469759;32;20104;-64
2022/05/24 09:07:37;;;;;;;5.90;2.78;;;;;;;20.74;65.00;99808.50;4469940;32;20772;-64
2022/05/24 09:10:12;;;;;;;7.62;3.47;;;;;;;20.47;64.87;99808.34;4469877;32;20492;-64
2022/05/24 09:12:57;;;;;;;4.20;3.47;;;;;;;20.52;66.67;99818.81;4470312;32;20118;-64
2022/05/24 09:15:33;;;;;;;6.90;2.55;;;;;;;20.65;64.97;99818.91;4470363;32;20122;-64
2022/05/24 09:18:00;;;;;;;;;;;;;;;20.73;64.41;99819.28;4465545;32;20107;-64
2022/05/24 09:20:38;;;;;;;4.55;2.53;;;;;;;20.81;66.89;99811.63;4461135;32;20059;-64
2022/05/24 09:23:46;;;;;;;5.45;2.62;;;;;;;20.84;63.53;99810.56;4460471;32;20165;-64
2022/05/24 09:26:20;;;;;;;3.35;3.03;;;;;;;20.68;64.69;99813.38;4403213;32;20828;-64
2022/05/24 09:28:56;;;;;;;5.22;3.35;;;;;;;20.81;65.77;99816.13;4404904;32;20090;-64
2022/05/24 09:31:41;;;;;;;6.20;3.22;;;;;;;20.75;65.36;99815.56;4445325;32;20080;-64
2022/05/24 09:34:17;;;;;;;4.32;3.03;;;;;;;21.15;64.41;99806.78;4471812;32;20154;-65
2022/05/24 09:36:50;;;;;;;4.87;3.03;;;;;;;21.41;62.53;99815.81;4472045;32;20828;-64
2022/05/24 09:39:25;;;;;;;5.22;3.28;;;;;;;;;;4471688;32;20076;-64
2022/05/24 09:42:00;;;;;;;10.57;3.65;;;;;;;21.79;61.83;99813.28;4463517;32;20512;-64
2022/05/24 09:44:43;;;;;;;3.42;3.00;;;;;;;21.52;63.88;99813.31;4456293;32;20149;-64
2022/05/24 09:47:43;;;;;;;7.35;3.58;;;;;;;21.64;60.71;99819.69;4456224;32;20142;-64
2022/05/24 09:50:25;;;;;;;10.23;3.67;;;;;;;21.73;62.84;99824.41;4447002;32;20184;-64
2022/05/24 09:53:19;;;;;;;5.22;3.50;;;;;;;22.08;63.51;99823.84;4456279;32;20153;-65
2022/05/24 09:55:52;;;;;;;4.05;2.60;;;;;;;22.08;61.15;99822.00;4457496;32;20560;-65
2022/05/24 09:58:49;;;;;;;5.20;2.50;;;;;;;22.25;60.79;99822.72;4456354;32;20484;-63
2022/05/24 10:01:40;;;;;;;3.35;2.37;;;;;;;22.13;60.09;99819.91;4456122;32;20358;-64
2022/05/24 10:04:16;;;;;;;4.80;2.58;;;;;;;22.16;58.89;99818.87;4456019;32;20388;-65
2022/05/24 10:07:30;;;;;;;4.13;3.13;;;;;;;22.42;59.19;99812.53;4456271;32;20101;-65
2022/05/24 10:10:10;;;;;;;3.72;2.22;;;;;;;22.37;59.57;99817.37;4444398;32;20097;-65
2022/05/24 10:13:01;;;;;;;8.93;2.62;;;;;;;22.84;58.23;99818.50;4456181;32;20100;-64
2022/05/24 10:16:00;;;;;;;5.97;2.83;;;;;;;22.93;56.66;99819.69;4455989;32;20167;-64
2022/05/24 10:18:40;;;;;;;3.85;3.08;;;;;;;22.81;55.86;99820.56;4456041;32;20096;-64
2022/05/24 10:21:23;;;;;;;4.15;2.55;;;;;;;23.18;53.88;99823.28;4455735;32;20126;-65
2022/05/24 10:24:28;;;;;;;6.05;2.90;;;;;;;23.56;54.70;99817.78;4455824;32;20107;-65
2022/05/24 10:27:05;;;;;;;2.70;2.37;;;;;;;23.45;53.22;99821.25;4455929;32;20440;-64
2022/05/24 10:29:49;;;;;;;3.97;2.05;;;;;;;23.22;53.87;99814.91;4460261;32;20100;-65
2022/05/24 10:38:59;;;;;;;3.97;2.40;;;;;;;23.95;53.00;99800.47;4471473;32;20102;-65
2022/05/24 10:41:32;;;;;;;4.75;2.33;;;;;;;24.39;54.12;99789.94;4468206;32;20158;-65
2022/05/24 10:44:14;;;;;;;5.43;2.45;;;;;;;24.43;50.98;99792.28;4455812;32;20147;-65
2022/05/24 10:47:06;;;;;;;3.03;2.05;;;;;;;24.38;50.49;99805.19;4454252;32;20084;-64
2022/05/24 10:49:46;;;;;;;16.12;2.72;;;;;;;24.84;48.76;99798.91;4450480;32;20195;-65
2022/05/24 10:52:31;;;;;;;4.57;2.90;;;;;;;24.43;48.63;99792.28;4460982;32;20927;-64
2022/05/24 10:55:14;;;;;;;3.05;2.37;;;;;;;24.59;50.41;99794.59;4461659;32;20196;-64
2022/05/24 10:57:58;;;;;;;2.75;2.15;;;;;;;24.27;50.54;99808.75;4461888;32;20156;-64
2022/05/24 11:00:35;;;;;;;3.92;2.53;;;;;;;24.69;49.24;99800.12;4458642;32;20108;-64
2022/05/24 11:03:13;;;;;;;4.93;2.03;;;;;;;24.89;47.71;99793.16;4459701;32;20161;-64
2022/05/24 11:05:43;;;;;;;4.10;2.53;;;;;;;25.42;46.90;99799.56;4462397;32;20111;-64
2022/05/24 11:08:34;;;;;;;2.78;2.08;;;;;;;24.59;48.21;99786.53;4462055;32;20115;-64
2022/05/24 11:11:22;;;;;;;2.40;2.20;;;;;;;24.87;48.85;99778.94;4461086;32;20161;-64
2022/05/24 11:13:59;;;;;;;3.78;2.20;;;;;;;25.51;48.56;99779.03;4459400;32;20100;-64
2022/05/24 11:16:39;;;;;;;3.35;2.50;;;;;;;25.89;48.37;99781.22;4459091;32;20182;-64
2022/05/24 11:19:14;;;;;;;3.05;2.42;;;;;;;26.03;45.64;99779.19;4458668;32;20204;-64
2022/05/24 11:21:48;;;;;;;2.50;2.27;;;;;;;26.39;44.48;99764.34;4459741;32;20954;-64
2022/05/24 11:24:40;;;;;;;4.65;2.35;;;;;;;26.41;44.60;99774.03;4453244;32;20475;-64
2022/05/24 11:27:13;;;;;;;2.45;2.25;;;;;;;26.64;44.54;99776.56;4453343;32;20092;-64
2022/05/24 11:29:47;;;;;;;2.37;2.10;;;;;;;26.84;42.23;99772.97;4452489;32;20096;-64
2022/05/24 11:32:35;;;;;;;2.40;2.20;;;;;;;27.67;42.88;99772.69;4452529;32;20168;-64
2022/05/24 11:35:28;;;;;;;2.37;1.95;;;;;;;28.78;40.19;99770.19;4453989;32;20097;-64
2022/05/24 11:38:11;;;;;;;7.57;2.17;;;;;;;30.07;38.10;99773.59;4456528;32;20790;-64
2022/05/24 11:41:07;;;;;;;3.87;2.30;;;;;;;31.06;35.76;99769.56;4455036;32;20084;-64
2022/05/24 11:43:43;;;;;;;5.25;2.17;;;;;;;31.80;34.53;99765.13;4455238;32;20160;-64
2022/05/24 11:46:33;;;;;;;3.22;2.80;;;;;;;31.59;34.48;99760.19;4455037;32;20081;-64
2022/05/24 11:49:19;;;;;;;2.45;2.30;;;;;;;32.00;33.21;99761.06;4452437;32;20188;-64
2022/05/24 11:51:49;;;;;;;6.37;2.62;;;;;;;33.33;32.13;99765.97;4463083;32;20097;-64
2022/05/24 11:54:18;;;;;;;3.42;2.35;;;;;;;33.46;31.19;99766.19;4468760;32;20505;-65
2022/05/24 11:57:14;;;;;;;2.67;2.28;;;;;;;32.72;31.62;99758.41;4469748;32;20089;-64
2022/05/24 11:59:46;;;;;;;2.25;1.80;;;;;;;33.62;31.56;99774.31;4468289;32;20096;-65
2022/05/24 12:02:25;;;;;;;6.82;2.60;;;;;;;34.19;30.70;99756.59;4470017;32;20212;-64
2022/05/24 12:08:04;;;;;;;4.37;2.17;;;;;;;34.95;29.04;99744.44;4469765;32;20163;-64
2022/05/24 12:10:36;;;;;;;1.87;1.77;;;;;;;34.59;28.99;99738.91;4470377;32;20171;-64
2022/05/24 12:14:12;;;;;;;3.10;2.30;;;;;;;34.15;30.34;99739.72;4505255;31;242017;-66
2022/05/24 12:17:08;;;;;;;2.92;2.25;;;;;;;34.15;30.34;99739.72;4497585;31;20104;-66
2022/05/24 12:19:35;;;;;;;2.17;1.85;;;;;;;33.45;30.80;99742.66;4497549;31;20080;-66
2022/05/24 12:22:08;;;;;;;2.55;2.20;;;;;;;33.23;30.75;99741.63;4497541;31;20156;-66
2022/05/24 12:24:38;;;;;;;1.77;1.60;;;;;;;32.90;30.78;99740.91;4497856;31;20092;-66
2022/05/24 12:27:16;;;;;;;3.70;2.37;;;;;;;33.81;30.57;99739.31;4497223;31;20092;-66
2022/05/24 12:29:52;;;;;;;4.47;2.00;;;;;;;33.78;29.65;99744.16;4495719;31;20139;-66
2022/05/24 12:32:22;;;;;;;3.90;1.85;;;;;;;32.79;30.84;99737.56;4495304;31;20487;-66
2022/05/24 12:34:50;;;;;;;2.97;1.40;;;;;;;33.04;29.67;99734.72;4497144;31;20152;-66
2022/05/24 12:37:28;;;;;;;1.98;1.87;;;;;;;33.40;30.46;99734.16;4497426;31;20104;-66